Time;durP1;ratioP1;P1;durP2;ratioP2;P2;SDS_P1;SDS_P2;PMS_P1;PMS_P2;Temp;Humidity;BMP_temperature;BMP_pressure;BME280_temperature;BME280_humidity;BME280_pressure;Samples;Min_cycle;Max_cycle;Signal;HPM_P1;HPM_P2
2022/12/27 00:00:49;;;;;;;309.08;144.10;;;10.60;99.90;;;;;;5074195;28;20028;-80
2022/12/27 00:03:15;;;;;;;309.38;143.25;;;10.50;99.90;;;;;;5073669;28;20052;-81
2022/12/27 00:05:45;;;;;;;307.63;140.80;;;10.50;99.90;;;;;;5073726;28;20031;-81
2022/12/27 00:08:11;;;;;;;310.27;144.48;;;10.60;99.90;;;;;;5072762;28;20024;-81
2022/12/27 00:10:37;;;;;;;296.85;138.55;;;10.60;99.90;;;;;;5073755;28;20032;-81
2022/12/27 00:13:03;;;;;;;307.52;141.32;;;10.60;99.90;;;;;;5073890;28;20021;-80
2022/12/27 00:15:29;;;;;;;302.60;140.10;;;10.60;99.90;;;;;;5072469;28;20074;-81
2022/12/27 00:17:55;;;;;;;304.05;141.60;;;10.60;99.90;;;;;;5073451;28;20024;-80
2022/12/27 00:20:21;;;;;;;328.88;146.60;;;10.60;99.90;;;;;;5072714;28;20028;-81
2022/12/27 00:22:46;;;;;;;302.20;144.88;;;10.60;99.90;;;;;;5073431;28;20085;-81
2022/12/27 00:25:12;;;;;;;315.95;147.77;;;10.60;99.90;;;;;;5079780;28;20022;-81
2022/12/27 00:27:38;;;;;;;322.17;147.52;;;10.60;99.90;;;;;;5093907;28;20024;-80
2022/12/27 00:30:04;;;;;;;315.50;146.32;;;10.60;99.90;;;;;;5093449;28;20024;-80
2022/12/27 00:32:30;;;;;;;274.02;132.27;;;10.60;99.90;;;;;;5092396;28;20140;-80
2022/12/27 00:34:55;;;;;;;233.63;109.47;;;10.60;99.90;;;;;;5092018;28;20463;-81
2022/12/27 00:37:21;;;;;;;237.23;115.55;;;10.60;99.90;;;;;;5081635;28;20024;-80
2022/12/27 00:39:47;;;;;;;236.57;112.38;;;10.60;99.90;;;;;;5092712;28;20115;-81
2022/12/27 00:42:13;;;;;;;194.00;92.95;;;10.60;99.90;;;;;;5082551;28;20093;-80
2022/12/27 00:44:38;;;;;;;204.02;95.40;;;10.60;99.90;;;;;;5072201;28;20063;-80
2022/12/27 00:47:04;;;;;;;188.90;85.25;;;10.70;99.90;;;;;;5073633;28;20025;-80
2022/12/27 00:49:30;;;;;;;172.55;80.47;;;10.70;99.90;;;;;;5072137;28;20024;-80
2022/12/27 00:51:56;;;;;;;165.23;76.00;;;10.70;99.90;;;;;;5073437;28;20032;-81
2022/12/27 00:54:22;;;;;;;128.63;59.47;;;10.80;99.90;;;;;;5083804;28;20020;-81
2022/12/27 00:56:47;;;;;;;128.57;57.22;;;10.90;99.90;;;;;;5096847;28;20114;-81
2022/12/27 00:59:13;;;;;;;91.15;41.72;;;11.00;99.90;;;;;;5077650;28;20444;-80
2022/12/27 01:01:40;;;;;;;76.50;36.38;;;11.20;99.90;;;;;;5077508;28;20027;-80
2022/12/27 01:04:06;;;;;;;74.72;37.78;;;11.30;99.90;;;;;;5077808;28;20100;-81
2022/12/27 01:06:33;;;;;;;67.57;32.70;;;11.50;99.90;;;;;;5077276;28;20056;-80
2022/12/27 01:09:00;;;;;;;50.85;25.70;;;11.70;99.90;;;;;;5076029;28;20031;-80
2022/12/27 01:11:27;;;;;;;53.33;27.17;;;11.90;99.90;;;;;;5077126;28;20463;-80
2022/12/27 01:14:01;;;;;;;44.13;20.80;;;11.90;99.90;;;;;;5076031;28;20035;-80
2022/12/27 01:16:29;;;;;;;29.63;12.88;;;11.90;99.90;;;;;;5077166;28;20100;-80
2022/12/27 01:18:55;;;;;;;20.50;10.98;;;12.00;99.90;;;;;;5076849;28;20118;-81
2022/12/27 01:21:23;;;;;;;43.53;21.23;;;12.00;99.90;;;;;;5075844;28;20074;-81
2022/12/27 01:23:49;;;;;;;22.60;12.95;;;12.10;99.90;;;;;;5077003;28;20107;-81
2022/12/27 01:26:19;;;;;;;25.90;14.02;;;12.00;99.90;;;;;;5076876;28;20024;-81
2022/12/27 01:28:46;;;;;;;35.75;17.70;;;12.10;99.90;;;;;;5077681;28;20027;-80
2022/12/27 01:31:14;;;;;;;35.10;16.55;;;12.20;99.90;;;;;;5076396;28;20367;-81
2022/12/27 01:33:41;;;;;;;21.30;11.88;;;12.20;99.90;;;;;;5075249;28;20309;-80
2022/12/27 01:36:27;;;;;;;27.88;14.75;;;12.20;99.90;;;;;;5074986;28;20024;-80
2022/12/27 01:38:53;;;;;;;24.05;12.90;;;12.30;99.90;;;;;;5076821;28;20012;-81
2022/12/27 01:47:15;;;;;;;16.95;7.47;;;12.40;99.90;;;;;;5076131;28;20024;-81
2022/12/27 01:49:54;;;;;;;19.48;9.18;;;12.40;99.90;;;;;;5075098;28;20024;-80
2022/12/27 01:52:21;;;;;;;17.08;7.80;;;12.40;99.90;;;;;;5075101;28;20046;-80
2022/12/27 01:54:47;;;;;;;22.15;8.80;;;12.40;99.90;;;;;;5076087;28;20021;-81
2022/12/27 01:57:12;;;;;;;23.55;9.75;;;12.40;99.90;;;;;;5075920;28;20032;-81
2022/12/27 01:59:39;;;;;;;28.52;12.18;;;12.40;99.90;;;;;;5075946;28;20028;-81
2022/12/27 02:02:05;;;;;;;23.25;10.73;;;12.40;99.90;;;;;;5074434;28;20454;-81
2022/12/27 02:04:32;;;;;;;27.35;9.30;;;12.50;99.90;;;;;;5075973;28;20028;-80
2022/12/27 02:06:59;;;;;;;21.80;7.55;;;12.50;99.90;;;;;;5073717;28;20016;-80
2022/12/27 02:09:42;;;;;;;14.73;5.32;;;12.60;99.90;;;;;;5075220;28;20047;-81
2022/12/27 02:12:09;;;;;;;15.80;4.85;;;12.60;99.90;;;;;;5075719;28;20027;-81
2022/12/27 02:14:43;;;;;;;13.85;5.15;;;12.60;99.90;;;;;;5075578;28;20028;-80
2022/12/27 02:17:30;;;;;;;14.35;5.70;;;12.60;99.90;;;;;;5075895;28;20024;-81
2022/12/27 02:20:04;;;;;;;10.52;5.65;;;12.70;99.90;;;;;;5069385;28;20040;-81
2022/12/27 02:25:41;;;;;;;5.80;3.30;;;12.80;99.90;;;;;;5073990;28;20558;-81
2022/12/27 02:28:31;;;;;;;7.50;4.10;;;12.80;99.90;;;;;;5074275;28;20078;-81
2022/12/27 02:31:15;;;;;;;10.57;3.78;;;12.80;99.90;;;;;;5067564;28;20067;-81
2022/12/27 02:33:46;;;;;;;7.25;3.85;;;12.90;99.90;;;;;;5069079;28;20047;-80
2022/12/27 02:36:21;;;;;;;6.55;3.55;;;12.90;99.90;;;;;;5075245;28;20020;-80
2022/12/27 02:38:52;;;;;;;8.82;4.07;;;13.00;99.90;;;;;;5075228;28;20020;-81
2022/12/27 02:53:08;;;;;;;20.95;9.38;;;13.20;99.90;;;;;;5075444;28;20043;-80
2022/12/27 02:59:34;;;;;;;11.35;6.63;;;13.10;99.90;;;;;;5051262;28;20074;-81
2022/12/27 03:05:42;;;;;;;22.70;9.63;;;13.00;99.90;;;;;;5067781;28;20078;-80
2022/12/27 03:08:20;;;;;;;24.58;8.85;;;13.00;99.90;;;;;;5044938;28;20063;-79
2022/12/27 03:16:54;;;;;;;18.52;9.00;;;12.90;99.90;;;;;;5070621;28;20125;-80
2022/12/27 03:25:28;;;;;;;15.93;6.88;;;12.50;99.90;;;;;;5073990;28;20059;-80
2022/12/27 03:34:30;;;;;;;18.85;8.98;;;12.00;99.90;;;;;;5074296;28;20108;-80
2022/12/27 03:39:35;;;;;;;15.48;8.07;;;11.70;99.90;;;;;;5068136;28;20036;-80
2022/12/27 03:44:49;;;;;;;18.98;8.05;;;11.60;99.90;;;;;;5074042;28;20402;-80
2022/12/27 03:47:55;;;;;;;15.77;7.43;;;11.60;99.90;;;;;;5073993;28;20440;-80
2022/12/27 03:50:45;;;;;;;20.20;8.25;;;11.70;99.90;;;;;;5072115;28;20459;-80
2022/12/27 03:53:22;;;;;;;15.85;8.02;;;11.60;99.90;;;;;;5072665;28;20024;-80
2022/12/27 03:55:48;;;;;;;21.17;9.50;;;11.60;99.90;;;;;;5073908;28;20016;-80
2022/12/27 03:58:14;;;;;;;24.60;11.18;;;11.60;99.90;;;;;;5072477;28;20489;-80
2022/12/27 04:00:39;;;;;;;19.98;10.88;;;11.70;99.90;;;;;;5073933;28;20036;-80
2022/12/27 04:03:05;;;;;;;25.02;11.15;;;11.60;99.90;;;;;;5073965;28;20427;-80
2022/12/27 04:05:31;;;;;;;23.58;13.25;;;11.60;99.90;;;;;;5073357;28;20032;-81
2022/12/27 04:35:17;;;;;;;94.45;52.53;;;11.10;99.90;;;;;;5073032;28;20102;-80
2022/12/27 04:37:43;;;;;;;77.22;37.92;;;11.10;99.90;;;;;;5073380;28;20021;-80
2022/12/27 04:56:36;;;;;;;95.65;45.33;;;11.00;99.90;;;;;;5072919;28;20036;-81
2022/12/27 05:02:03;;;;;;;68.65;33.15;;;10.90;99.90;;;;;;5073190;28;20077;-80
2022/12/27 05:04:31;;;;;;;56.42;26.77;;;10.90;99.90;;;;;;5071891;28;20020;-81
2022/12/27 05:06:58;;;;;;;91.80;52.13;;;10.90;99.90;;;;;;5073016;28;20111;-80
2022/12/27 05:15:11;;;;;;;49.20;25.40;;;10.80;99.90;;;;;;5071752;28;20482;-80
2022/12/27 05:17:37;;;;;;;38.63;17.65;;;10.80;99.90;;;;;;5072540;28;20032;-81
2022/12/27 05:20:03;;;;;;;37.00;17.65;;;10.80;99.90;;;;;;5073124;28;20087;-82
2022/12/27 05:27:57;;;;;;;35.03;20.15;;;10.80;99.90;;;;;;5068143;28;20063;-81
2022/12/27 05:30:22;;;;;;;42.78;22.77;;;10.80;99.90;;;;;;5073052;28;20060;-81
2022/12/27 05:32:48;;;;;;;41.88;21.77;;;10.80;99.90;;;;;;5073241;28;20375;-81
2022/12/27 05:35:14;;;;;;;44.33;25.00;;;10.80;99.90;;;;;;5072810;28;20051;-81
2022/12/27 05:37:39;;;;;;;41.78;22.60;;;10.90;99.90;;;;;;5073249;28;20490;-80
2022/12/27 05:40:06;;;;;;;58.30;34.30;;;10.90;99.90;;;;;;5073153;28;20066;-80
2022/12/27 05:42:32;;;;;;;62.78;38.35;;;10.90;99.90;;;;;;5075448;28;20497;-80
2022/12/27 05:44:57;;;;;;;42.47;24.83;;;10.90;99.90;;;;;;5076452;28;20028;-81
2022/12/27 05:47:23;;;;;;;52.42;32.25;;;10.90;99.90;;;;;;5076165;28;20493;-82
2022/12/27 05:49:49;;;;;;;109.97;69.43;;;10.90;99.90;;;;;;5075832;28;20036;-81
2022/12/27 05:52:14;;;;;;;123.43;74.78;;;10.90;99.90;;;;;;5075312;28;20051;-80
2022/12/27 05:54:40;;;;;;;94.35;57.13;;;10.90;99.90;;;;;;5076422;28;20017;-80
2022/12/27 05:57:06;;;;;;;71.45;38.15;;;10.90;99.90;;;;;;5085062;28;20027;-79
2022/12/27 05:59:31;;;;;;;54.55;28.35;;;10.90;99.90;;;;;;5085730;28;20020;-81
2022/12/27 06:01:57;;;;;;;48.72;26.58;;;10.90;99.90;;;;;;5096176;28;20016;-82
2022/12/27 06:04:23;;;;;;;44.45;23.00;;;10.90;99.90;;;;;;5076027;28;20071;-82
2022/12/27 06:06:48;;;;;;;50.22;24.08;;;10.90;99.90;;;;;;5074987;28;20021;-81
2022/12/27 06:09:14;;;;;;;60.17;29.70;;;10.90;99.90;;;;;;5075010;28;20021;-82
2022/12/27 06:11:40;;;;;;;81.03;42.55;;;10.80;99.90;;;;;;5074943;28;20043;-82
2022/12/27 06:14:05;;;;;;;99.80;50.58;;;10.80;99.90;;;;;;5075754;28;20020;-82
2022/12/27 06:16:31;;;;;;;78.95;45.92;;;10.80;99.90;;;;;;5074647;28;20052;-82
2022/12/27 06:18:57;;;;;;;69.55;38.15;;;10.80;99.90;;;;;;5074421;28;20044;-82
2022/12/27 06:21:22;;;;;;;67.50;35.35;;;10.80;99.90;;;;;;5076212;28;20032;-82
2022/12/27 06:23:49;;;;;;;68.63;36.72;;;10.80;99.90;;;;;;5076140;28;20070;-83
2022/12/27 06:26:18;;;;;;;85.88;45.35;;;10.80;99.90;;;;;;5074640;28;20016;-82
2022/12/27 06:28:44;;;;;;;99.82;51.03;;;10.80;99.90;;;;;;5074673;28;20016;-82
2022/12/27 06:31:10;;;;;;;87.97;44.05;;;10.80;99.90;;;;;;5075367;28;20120;-82
2022/12/27 06:33:36;;;;;;;83.22;43.25;;;10.80;99.90;;;;;;5074346;28;20029;-81
2022/12/27 06:36:09;;;;;;;118.18;62.92;;;10.80;99.90;;;;;;5076086;28;20020;-83
2022/12/27 06:38:36;;;;;;;94.82;52.75;;;10.80;99.90;;;;;;5075797;28;20020;-83
2022/12/27 06:41:06;;;;;;;75.25;35.92;;;10.80;99.90;;;;;;5074141;28;20054;-82
2022/12/27 06:43:33;;;;;;;68.15;36.70;;;10.90;99.90;;;;;;5074933;28;20020;-82
2022/12/27 06:46:01;;;;;;;554.25;183.35;;;10.90;99.90;;;;;;5074297;28;20047;-82
2022/12/27 06:48:27;;;;;;;209.95;70.28;;;10.80;99.90;;;;;;5075280;28;20067;-82
2022/12/27 06:50:53;;;;;;;34.45;18.10;;;10.80;99.90;;;;;;5074176;28;20025;-81
2022/12/27 06:53:19;;;;;;;30.13;17.02;;;10.90;99.90;;;;;;5075125;28;20020;-82
2022/12/27 06:55:45;;;;;;;85.22;36.92;;;10.90;99.90;;;;;;5074023;28;20020;-83
2022/12/27 06:58:12;;;;;;;188.15;81.30;;;10.90;99.90;;;;;;5074220;28;20027;-82
2022/12/27 07:00:39;;;;;;;135.35;57.90;;;10.90;99.90;;;;;;5074169;28;20055;-82
2022/12/27 07:03:05;;;;;;;156.30;74.47;;;10.90;99.90;;;;;;5073971;28;20024;-83
2022/12/27 07:05:33;;;;;;;198.18;104.57;;;10.80;99.90;;;;;;5074863;28;20490;-82
2022/12/27 07:07:59;;;;;;;186.75;102.43;;;10.80;99.90;;;;;;5073909;28;20407;-81
2022/12/27 07:10:24;;;;;;;69.35;36.88;;;10.80;99.90;;;;;;5073772;28;20047;-83
2022/12/27 07:12:50;;;;;;;139.27;71.80;;;10.80;99.90;;;;;;5073352;28;20037;-82
2022/12/27 07:15:16;;;;;;;220.68;107.95;;;10.80;99.90;;;;;;5074657;28;20043;-82
2022/12/27 07:17:41;;;;;;;217.43;100.50;;;10.80;99.90;;;;;;5073555;28;20027;-82
2022/12/27 07:20:08;;;;;;;138.80;74.72;;;10.80;99.90;;;;;;5073279;28;20074;-82
2022/12/27 07:22:34;;;;;;;123.47;66.93;;;10.70;99.90;;;;;;5074891;28;20410;-82
2022/12/27 07:24:59;;;;;;;97.50;53.15;;;10.70;99.90;;;;;;5073212;28;20052;-83
2022/12/27 07:27:25;;;;;;;81.78;41.90;;;10.70;99.90;;;;;;5073414;28;20031;-83
2022/12/27 07:29:51;;;;;;;105.68;47.08;;;10.70;99.90;;;;;;5074537;28;20024;-82
2022/12/27 07:32:16;;;;;;;134.82;49.83;;;10.70;99.90;;;;;;5074697;28;20035;-83
2022/12/27 07:34:42;;;;;;;269.80;105.97;;;10.70;99.90;;;;;;5073262;28;20016;-82
2022/12/27 07:37:08;;;;;;;266.52;106.43;;;10.60;99.90;;;;;;5074164;28;20025;-82
2022/12/27 07:39:33;;;;;;;162.48;71.32;;;10.60;99.90;;;;;;5074549;28;20021;-83
2022/12/27 07:41:59;;;;;;;89.53;47.58;;;10.70;99.90;;;;;;5073059;28;20073;-83
2022/12/27 07:44:25;;;;;;;175.40;90.45;;;10.70;99.90;;;;;;5073992;28;20028;-83
2022/12/27 07:46:51;;;;;;;395.00;213.05;;;10.60;99.90;;;;;;5073239;28;20115;-83
2022/12/27 07:49:17;;;;;;;312.10;182.70;;;10.60;99.90;;;;;;5072939;28;20130;-83
2022/12/27 07:51:43;;;;;;;234.93;139.32;;;10.60;99.90;;;;;;5072869;28;20024;-84
2022/12/27 07:54:08;;;;;;;256.13;146.07;;;10.50;99.90;;;;;;5074344;28;20028;-82
2022/12/27 07:56:34;;;;;;;316.38;189.05;;;10.50;99.90;;;;;;5074433;28;20095;-82
2022/12/27 07:59:01;;;;;;;297.70;166.65;;;10.50;99.90;;;;;;5073534;28;20055;-83
2022/12/27 08:02:02;;;;;;;182.65;103.13;;;10.50;99.90;;;;;;5073133;28;20126;-83
2022/12/27 08:04:15;;;;;;;155.35;84.32;;;10.50;99.90;;;;;;5073057;28;20094;-81
2022/12/27 08:06:40;;;;;;;162.75;86.20;;;10.50;99.90;;;;;;5072894;28;20459;-83
2022/12/27 08:09:06;;;;;;;173.23;87.28;;;10.40;99.90;;;;;;5072626;28;20016;-83
2022/12/27 08:11:32;;;;;;;156.02;77.07;;;10.50;99.90;;;;;;5072615;28;20073;-83
2022/12/27 08:13:58;;;;;;;179.43;75.72;;;10.40;99.90;;;;;;5073838;28;20414;-82
2022/12/27 08:16:24;;;;;;;86.50;44.08;;;10.40;99.90;;;;;;5073999;28;20020;-85
2022/12/27 08:18:52;;;;;;;103.50;44.22;;;10.40;99.90;;;;;;5073448;28;20055;-81
2022/12/27 08:21:17;;;;;;;61.22;28.40;;;10.50;99.90;;;;;;5072673;28;20031;-82
2022/12/27 08:23:43;;;;;;;61.08;29.38;;;10.50;99.90;;;;;;5072685;28;20069;-82
2022/12/27 08:26:09;;;;;;;77.75;38.38;;;10.50;99.90;;;;;;5073803;28;20074;-83
2022/12/27 08:28:35;;;;;;;89.43;45.88;;;10.50;99.90;;;;;;5072602;28;20017;-83
2022/12/27 08:31:00;;;;;;;99.45;53.28;;;10.50;99.90;;;;;;5072249;28;20028;-85
2022/12/27 08:33:27;;;;;;;86.72;46.08;;;10.50;99.90;;;;;;5071036;28;20586;-84
2022/12/27 08:35:53;;;;;;;130.23;62.30;;;10.50;99.90;;;;;;5070976;28;20112;-84
2022/12/27 08:38:19;;;;;;;97.15;52.08;;;10.60;99.90;;;;;;5071341;28;20132;-83
2022/12/27 08:40:45;;;;;;;73.57;43.67;;;10.50;99.90;;;;;;5073817;28;20107;-84
2022/12/27 08:43:11;;;;;;;61.50;33.92;;;10.50;99.90;;;;;;5071553;28;20025;-84
2022/12/27 08:45:38;;;;;;;51.30;32.28;;;10.60;99.90;;;;;;5072000;28;20017;-84
2022/12/27 08:48:04;;;;;;;64.50;40.88;;;10.60;99.90;;;;;;5071936;28;20130;-84
2022/12/27 08:50:30;;;;;;;79.43;48.83;;;10.60;99.90;;;;;;5071884;28;20020;-84
2022/12/27 08:52:59;;;;;;;75.88;42.80;;;10.60;99.90;;;;;;5073610;28;20133;-83
2022/12/27 08:55:26;;;;;;;43.28;26.05;;;10.60;99.90;;;;;;5072372;28;20024;-82
2022/12/27 08:57:59;;;;;;;54.05;28.90;;;10.60;99.90;;;;;;5072276;28;20024;-83
2022/12/27 09:00:26;;;;;;;69.65;42.22;;;10.60;99.90;;;;;;5072105;28;20028;-82
2022/12/27 09:02:52;;;;;;;54.05;32.40;;;10.60;99.90;;;;;;5073456;28;20501;-83
2022/12/27 09:05:19;;;;;;;67.63;37.97;;;10.60;99.90;;;;;;5072185;28;20107;-83
2022/12/27 09:07:45;;;;;;;72.90;39.33;;;10.70;99.90;;;;;;5072175;28;20016;-81
2022/12/27 09:10:11;;;;;;;69.20;39.25;;;10.60;99.90;;;;;;5072010;28;20048;-81
2022/12/27 09:12:37;;;;;;;55.28;32.80;;;10.60;99.90;;;;;;5073624;28;20060;-82
2022/12/27 09:15:03;;;;;;;38.20;23.70;;;10.70;99.90;;;;;;5073098;28;20017;-83
2022/12/27 09:17:29;;;;;;;29.10;19.17;;;10.70;99.90;;;;;;5074199;28;20020;-83
2022/12/27 09:19:54;;;;;;;23.27;16.90;;;10.60;99.90;;;;;;5076089;28;20575;-82
2022/12/27 09:22:20;;;;;;;34.08;18.45;;;10.70;99.90;;;;;;5075454;28;20044;-82
2022/12/27 09:24:46;;;;;;;33.90;18.50;;;10.70;99.90;;;;;;5074829;28;20119;-83
2022/12/27 09:27:11;;;;;;;37.65;20.25;;;10.70;99.90;;;;;;5075700;28;20429;-82
2022/12/27 09:29:37;;;;;;;34.75;17.67;;;10.70;99.90;;;;;;5075470;28;20016;-84
2022/12/27 09:32:03;;;;;;;21.52;13.23;;;10.70;99.90;;;;;;5076924;28;20048;-83
2022/12/27 09:34:29;;;;;;;31.35;17.77;;;10.60;99.90;;;;;;5075672;28;20044;-82
2022/12/27 09:36:54;;;;;;;43.30;22.10;;;10.60;99.90;;;;;;5074783;28;20050;-83
2022/12/27 09:39:20;;;;;;;33.33;17.13;;;10.60;99.90;;;;;;5075297;28;20359;-83
2022/12/27 09:42:10;;;;;;;35.33;17.33;;;10.60;99.90;;;;;;5077123;28;20077;-82
2022/12/27 09:44:49;;;;;;;60.92;26.83;;;10.60;99.90;;;;;;5075320;28;20025;-83
2022/12/27 09:47:52;;;;;;;63.00;31.25;;;10.70;99.90;;;;;;5076643;28;20017;-82
2022/12/27 09:50:41;;;;;;;35.38;17.45;;;10.70;99.90;;;;;;5075191;28;20447;-83
2022/12/27 09:53:21;;;;;;;222.43;81.63;;;10.70;99.90;;;;;;5075310;28;20060;-84
2022/12/27 09:55:51;;;;;;;96.95;39.60;;;10.70;99.90;;;;;;5075373;28;20022;-81
2022/12/27 09:58:23;;;;;;;47.38;23.13;;;10.70;99.90;;;;;;5075085;28;20020;-82
2022/12/27 10:00:50;;;;;;;29.40;14.68;;;10.70;99.90;;;;;;5075193;28;20475;-82
2022/12/27 10:03:20;;;;;;;66.47;31.98;;;10.70;99.90;;;;;;5074951;28;20024;-83
2022/12/27 10:05:52;;;;;;;36.42;20.00;;;10.80;99.90;;;;;;5076167;28;20024;-79
2022/12/27 10:08:29;;;;;;;23.73;14.02;;;10.80;99.90;;;;;;5076089;28;20085;-83
2022/12/27 10:11:07;;;;;;;25.38;13.85;;;10.80;99.90;;;;;;5076054;28;20020;-82
2022/12/27 10:13:57;;;;;;;248.73;89.95;;;10.80;99.90;;;;;;5075092;28;20406;-80
2022/12/27 10:16:31;;;;;;;219.52;81.10;;;10.90;99.90;;;;;;5074814;28;20016;-80
2022/12/27 10:19:15;;;;;;;289.95;105.65;;;10.90;99.90;;;;;;5074523;28;20537;-81
2022/12/27 10:22:13;;;;;;;177.18;65.78;;;10.90;99.90;;;;;;5076011;28;20032;-82
2022/12/27 10:24:49;;;;;;;103.32;41.20;;;11.00;99.90;;;;;;5048789;28;20028;-80
2022/12/27 10:27:24;;;;;;;228.52;81.22;;;11.00;99.90;;;;;;5073992;28;20024;-81
2022/12/27 10:29:54;;;;;;;189.93;68.65;;;11.10;99.90;;;;;;5074398;28;20024;-81
2022/12/27 10:32:20;;;;;;;45.25;23.88;;;11.10;99.90;;;;;;5074464;28;20020;-82
2022/12/27 10:34:50;;;;;;;36.10;19.55;;;11.10;99.90;;;;;;5074530;28;20017;-85
2022/12/27 10:37:16;;;;;;;36.28;19.40;;;11.10;99.90;;;;;;5075720;28;20099;-82
2022/12/27 10:39:42;;;;;;;39.33;22.30;;;11.20;99.90;;;;;;5075673;28;20123;-82
2022/12/27 10:42:40;;;;;;;38.90;20.25;;;11.20;99.90;;;;;;5074492;28;20097;-84
2022/12/27 10:45:25;;;;;;;36.70;21.15;;;11.20;99.90;;;;;;5074362;28;20043;-85
2022/12/27 10:47:53;;;;;;;37.25;21.38;;;11.20;99.90;;;;;;5074375;28;20105;-84
2022/12/27 10:50:21;;;;;;;38.95;24.88;;;11.20;99.90;;;;;;5074094;28;20161;-83
2022/12/27 10:52:47;;;;;;;25.15;14.68;;;11.20;99.90;;;;;;5074222;28;20453;-82
2022/12/27 10:55:35;;;;;;;23.52;13.18;;;11.20;99.90;;;;;;5074211;28;20101;-82
2022/12/27 10:58:39;;;;;;;25.55;14.07;;;11.20;99.90;;;;;;5075487;28;20597;-82
2022/12/27 11:01:13;;;;;;;26.73;16.63;;;11.20;99.90;;;;;;5075206;28;20024;-84
2022/12/27 11:03:38;;;;;;;29.85;16.00;;;11.30;99.90;;;;;;5073721;28;20025;-83
2022/12/27 11:06:15;;;;;;;36.40;17.85;;;11.20;99.90;;;;;;5074006;28;20089;-82
2022/12/27 11:08:41;;;;;;;30.92;18.63;;;11.20;99.90;;;;;;5075543;28;20031;-82
2022/12/27 11:11:24;;;;;;;45.70;24.20;;;11.20;99.90;;;;;;5073677;28;20024;-83
2022/12/27 11:13:51;;;;;;;49.42;27.55;;;11.10;99.90;;;;;;5073685;28;20072;-83
2022/12/27 11:16:28;;;;;;;50.95;28.50;;;11.20;99.90;;;;;;5075057;28;20020;-83
2022/12/27 11:18:57;;;;;;;39.80;22.90;;;11.20;99.90;;;;;;5074706;28;20045;-83
2022/12/27 11:21:23;;;;;;;52.15;26.50;;;11.10;99.90;;;;;;5074697;28;20016;-85
2022/12/27 11:23:54;;;;;;;43.13;23.90;;;11.10;99.90;;;;;;5075019;28;20091;-81
2022/12/27 11:26:23;;;;;;;61.88;35.13;;;11.10;99.90;;;;;;5073521;28;20070;-84
2022/12/27 11:28:53;;;;;;;79.78;41.13;;;11.20;99.90;;;;;;5073990;28;20024;-84
2022/12/27 11:31:31;;;;;;;103.80;51.15;;;11.20;99.90;;;;;;5074554;28;20128;-83
2022/12/27 11:34:02;;;;;;;72.38;38.78;;;11.20;99.90;;;;;;5073820;28;20029;-81
2022/12/27 11:36:39;;;;;;;70.37;41.03;;;11.30;99.90;;;;;;5072891;28;20390;-83
2022/12/27 11:39:07;;;;;;;31.90;16.27;;;11.20;99.90;;;;;;5073513;28;20057;-82
2022/12/27 11:41:48;;;;;;;52.38;28.48;;;11.20;99.90;;;;;;5072989;28;20057;-82
2022/12/27 11:44:22;;;;;;;81.20;38.88;;;11.20;99.90;;;;;;5074552;28;20020;-82
2022/12/27 11:46:53;;;;;;;87.32;47.72;;;11.10;99.90;;;;;;5073072;28;20024;-82
2022/12/27 11:49:27;;;;;;;56.58;34.13;;;11.20;99.90;;;;;;5074469;28;20023;-84
2022/12/27 11:52:21;;;;;;;56.88;33.20;;;11.20;99.90;;;;;;5074083;28;20079;-82
2022/12/27 11:55:11;;;;;;;43.50;27.48;;;11.10;99.90;;;;;;5073297;28;20020;-82
2022/12/27 11:57:49;;;;;;;46.30;30.83;;;11.10;99.90;;;;;;5072955;28;20452;-82
2022/12/27 12:00:23;;;;;;;42.08;22.92;;;11.20;99.90;;;;;;5072822;28;20025;-82
2022/12/27 12:02:58;;;;;;;109.30;58.58;;;11.20;99.90;;;;;;5072887;28;20025;-82
2022/12/27 12:05:42;;;;;;;108.65;54.20;;;11.30;99.90;;;;;;5072860;28;20024;-83
2022/12/27 12:08:33;;;;;;;102.50;55.80;;;11.30;99.90;;;;;;5072768;28;20025;-82
2022/12/27 12:11:10;;;;;;;96.93;51.92;;;11.40;99.90;;;;;;5072490;28;20028;-84
2022/12/27 12:13:55;;;;;;;67.28;37.03;;;11.40;99.90;;;;;;5074279;28;20505;-82
2022/12/27 12:16:39;;;;;;;65.47;36.60;;;11.40;99.90;;;;;;5073845;28;20031;-84
2022/12/27 12:19:13;;;;;;;64.20;37.92;;;11.40;99.90;;;;;;5073777;28;20040;-82
2022/12/27 12:22:04;;;;;;;62.22;36.72;;;11.40;99.90;;;;;;5072581;28;20166;-83
2022/12/27 12:24:54;;;;;;;69.55;42.15;;;11.40;99.90;;;;;;5072796;28;20020;-83
2022/12/27 12:27:45;;;;;;;62.38;34.42;;;11.40;99.90;;;;;;5072659;28;20398;-81
2022/12/27 12:30:26;;;;;;;77.35;47.28;;;11.40;99.90;;;;;;5072610;28;20132;-82
2022/12/27 12:33:04;;;;;;;56.87;33.60;;;11.40;99.90;;;;;;5073925;28;20070;-83
2022/12/27 12:35:48;;;;;;;57.95;33.28;;;11.40;99.90;;;;;;5073403;28;20024;-82
2022/12/27 12:38:26;;;;;;;53.83;31.38;;;11.30;99.90;;;;;;5073597;28;20099;-82
2022/12/27 12:41:01;;;;;;;62.17;38.47;;;11.30;99.90;;;;;;5072579;28;20119;-83
2022/12/27 12:43:48;;;;;;;39.65;23.55;;;11.30;99.90;;;;;;5072370;28;20354;-82
2022/12/27 12:47:04;;;;;;;29.75;17.98;;;11.30;99.90;;;;;;5072219;28;20481;-83
2022/12/27 12:49:48;;;;;;;37.05;21.45;;;11.20;99.90;;;;;;5060607;28;20036;-83
2022/12/27 12:52:44;;;;;;;41.03;24.35;;;11.10;99.90;;;;;;5076212;28;20119;-82
2022/12/27 12:55:42;;;;;;;31.23;19.20;;;11.10;99.90;;;;;;5076593;28;20366;-84
2022/12/27 12:58:36;;;;;;;51.92;30.98;;;11.10;99.90;;;;;;5068086;28;20371;-82
2022/12/27 13:01:29;;;;;;;51.97;29.77;;;11.10;99.90;;;;;;5076528;28;20029;-82
2022/12/27 13:04:00;;;;;;;45.53;24.85;;;11.00;99.90;;;;;;5076271;28;20459;-82
2022/12/27 13:06:56;;;;;;;46.55;27.27;;;11.00;99.90;;;;;;5077368;28;20386;-84
2022/12/27 13:09:28;;;;;;;31.92;22.13;;;10.90;99.90;;;;;;5076366;28;20027;-83
2022/12/27 13:12:15;;;;;;;31.65;20.92;;;10.90;99.90;;;;;;5076120;28;20024;-82
2022/12/27 13:15:07;;;;;;;26.23;19.70;;;10.90;99.90;;;;;;5076275;28;20025;-82
2022/12/27 13:17:45;;;;;;;31.27;21.55;;;10.80;99.90;;;;;;5076232;28;20044;-84
2022/12/27 13:20:34;;;;;;;47.50;28.27;;;10.80;99.90;;;;;;5075639;28;20135;-83
2022/12/27 13:23:30;;;;;;;37.80;22.25;;;10.70;99.90;;;;;;5076022;28;20470;-82
2022/12/27 13:26:17;;;;;;;40.03;23.67;;;10.60;99.90;;;;;;5077302;28;20052;-82
2022/12/27 13:29:07;;;;;;;49.35;27.95;;;10.60;99.90;;;;;;5077212;28;20043;-83
2022/12/27 13:31:54;;;;;;;52.85;27.83;;;10.50;99.90;;;;;;5075650;28;20020;-83
2022/12/27 13:34:37;;;;;;;32.17;17.13;;;10.40;99.90;;;;;;5075573;28;20455;-83
2022/12/27 13:37:28;;;;;;;51.63;26.92;;;10.30;99.90;;;;;;5076995;28;20016;-82
2022/12/27 13:40:06;;;;;;;39.83;20.80;;;10.30;99.90;;;;;;5075574;28;20020;-83
2022/12/27 13:42:39;;;;;;;34.95;17.52;;;10.30;99.90;;;;;;5075380;28;20027;-81
2022/12/27 13:45:27;;;;;;;33.70;17.02;;;10.20;99.90;;;;;;5075463;28;20028;-83
2022/12/27 13:48:22;;;;;;;36.05;18.52;;;10.10;99.90;;;;;;5075407;28;20020;-82
2022/12/27 13:51:03;;;;;;;53.10;29.58;;;10.10;99.90;;;;;;5075431;28;20456;-83
2022/12/27 13:53:50;;;;;;;128.10;60.88;;;10.10;99.90;;;;;;5075332;28;20031;-82
2022/12/27 13:56:42;;;;;;;122.03;60.80;;;10.00;99.90;;;;;;5074452;28;20024;-83
2022/12/27 13:59:29;;;;;;;132.43;66.35;;;10.00;99.90;;;;;;5091518;28;20020;-81
2022/12/27 14:02:13;;;;;;;72.50;35.60;;;10.00;99.90;;;;;;5082165;28;20486;-82
2022/12/27 14:04:51;;;;;;;58.72;33.40;;;10.00;99.90;;;;;;5075980;28;20069;-84
2022/12/27 14:07:38;;;;;;;55.72;32.90;;;10.00;99.90;;;;;;5073846;28;20024;-83
2022/12/27 14:10:32;;;;;;;106.00;58.80;;;10.00;99.90;;;;;;5074268;28;20471;-82
2022/12/27 14:13:06;;;;;;;196.77;104.72;;;10.00;99.90;;;;;;5074645;28;20020;-84
2022/12/27 14:16:15;;;;;;;125.95;66.57;;;10.00;99.90;;;;;;5075200;28;20131;-81
2022/12/27 14:19:02;;;;;;;99.47;58.67;;;9.90;99.90;;;;;;5071036;28;20071;-81
2022/12/27 14:21:43;;;;;;;90.80;56.38;;;9.90;99.90;;;;;;5074528;28;20032;-82
2022/12/27 14:24:39;;;;;;;91.68;59.67;;;9.90;99.90;;;;;;5073032;28;20028;-82
2022/12/27 14:27:16;;;;;;;58.15;34.08;;;9.90;99.90;;;;;;5022549;28;20556;-82
2022/12/27 14:29:57;;;;;;;59.17;31.30;;;9.90;99.90;;;;;;5025334;28;20121;-81
2022/12/27 14:32:41;;;;;;;76.38;46.78;;;9.90;99.90;;;;;;5023631;28;20037;-82
2022/12/27 14:35:29;;;;;;;76.00;46.67;;;9.90;99.90;;;;;;5004025;28;20021;-81
2022/12/27 14:38:18;;;;;;;83.57;48.55;;;9.90;99.90;;;;;;5025613;28;20033;-80
2022/12/27 14:40:56;;;;;;;105.40;56.10;;;9.80;99.90;;;;;;5007820;28;20057;-80
2022/12/27 14:43:57;;;;;;;103.03;55.80;;;9.80;99.90;;;;;;5022617;28;20044;-83